createdAt,value
2023-05-11T00:01:22.812Z,86.00
2023-05-11T00:03:50.847Z,81.65
2023-05-11T00:06:18.833Z,75.26
2023-05-11T00:08:46.779Z,75.88
2023-05-11T00:11:18.488Z,84.50
2023-05-11T00:13:46.599Z,80.42
2023-05-11T00:16:14.885Z,78.89
2023-05-11T00:18:43.013Z,81.30
2023-05-11T00:21:10.980Z,82.65
2023-05-11T00:23:38.969Z,77.04
2023-05-11T00:26:06.934Z,80.51
2023-05-11T00:28:34.864Z,84.21
2023-05-11T00:31:03.156Z,79.67
2023-05-11T00:33:31.535Z,76.79
2023-05-11T00:35:59.490Z,79.76
2023-05-11T00:38:27.524Z,76.72
2023-05-11T00:40:55.586Z,76.98
2023-05-11T00:43:23.897Z,75.53
2023-05-11T00:45:53.407Z,72.92
2023-05-11T00:48:21.788Z,72.33
2023-05-11T00:50:50.509Z,75.43
2023-05-11T00:53:18.586Z,75.40
2023-05-11T00:55:46.739Z,72.33
2023-05-11T00:58:15.974Z,70.71
2023-05-11T01:00:44.459Z,75.58
2023-05-11T01:03:14.885Z,73.63
2023-05-11T01:06:08.948Z,71.13
2023-05-11T01:08:53.255Z,70.23
2023-05-11T01:11:47.194Z,69.54
2023-05-11T01:14:46.854Z,69.16
2023-05-11T01:17:52.859Z,68.98
2023-05-11T01:20:27.770Z,73.56
2023-05-11T01:23:14.333Z,75.98
2023-05-11T01:26:32.130Z,78.23
2023-05-11T01:30:11.429Z,75.20
2023-05-11T01:32:43.052Z,73.17
2023-05-11T01:35:19.082Z,74.16
2023-05-11T01:37:54.259Z,74.42
2023-05-11T01:40:28.181Z,73.77
2023-05-11T01:43:05.191Z,74.24
2023-05-11T01:45:42.494Z,73.96
2023-05-11T01:48:35.812Z,73.18
2023-05-11T01:51:04.594Z,72.45
2023-05-11T01:53:38.738Z,72.51
2023-05-11T01:56:07.498Z,72.89
2023-05-11T01:58:37.289Z,72.04
2023-05-11T02:01:06.802Z,73.14
2023-05-11T02:03:37.666Z,72.18
2023-05-11T02:06:06.898Z,70.69
2023-05-11T02:08:38.343Z,70.34
2023-05-11T02:11:08.090Z,69.67
2023-05-11T02:13:42.497Z,69.89
2023-05-11T02:16:11.174Z,70.22
2023-05-11T02:18:41.609Z,70.02
2023-05-11T02:21:10.999Z,69.62
2023-05-11T02:23:40.428Z,69.38
2023-05-11T02:26:09.530Z,69.59
2023-05-11T02:28:37.507Z,72.11
2023-05-11T02:31:21.510Z,72.62
2023-05-11T02:33:52.589Z,70.86
2023-05-11T02:36:24.678Z,72.68
2023-05-11T02:39:04.261Z,70.66
2023-05-11T02:41:33.574Z,70.76
2023-05-11T02:44:06.612Z,70.12
2023-05-11T02:46:38.743Z,70.00
2023-05-11T02:49:10.459Z,69.62
2023-05-11T02:51:43.356Z,69.67
2023-05-11T02:54:13.441Z,69.49
2023-05-11T02:56:47.056Z,69.71
2023-05-11T02:59:15.882Z,70.52
2023-05-11T03:01:45.392Z,69.72
2023-05-11T03:04:13.835Z,68.97
2023-05-11T03:06:42.855Z,69.18
2023-05-11T03:09:11.889Z,69.14
2023-05-11T03:11:45.607Z,69.52
2023-05-11T03:14:14.384Z,68.95
2023-05-11T03:16:44.370Z,69.11
2023-05-11T03:19:13.644Z,76.81
2023-05-11T03:21:41.840Z,70.34
2023-05-11T03:24:12.092Z,70.65
2023-05-11T03:26:43.996Z,69.41
2023-05-11T03:29:13.672Z,68.94
2023-05-11T03:31:41.956Z,69.12
2023-05-11T03:34:10.216Z,68.75
2023-05-11T03:36:45.585Z,68.54
2023-05-11T03:39:16.731Z,68.54
2023-05-11T03:41:50.345Z,69.40
2023-05-11T03:44:22.057Z,68.90
2023-05-11T03:46:55.257Z,69.38
2023-05-11T03:49:24.486Z,72.62
2023-05-11T03:51:53.558Z,71.05
2023-05-11T03:54:22.171Z,70.30
2023-05-11T03:56:52.090Z,71.96
2023-05-11T03:59:22.021Z,74.02
2023-05-11T04:01:53.023Z,73.58
2023-05-11T04:04:25.941Z,73.88
2023-05-11T04:06:53.910Z,75.66
2023-05-11T04:09:23.602Z,75.69
2023-05-11T04:11:52.797Z,77.14
2023-05-11T04:14:20.843Z,78.22
2023-05-11T04:16:49.211Z,76.12
2023-05-11T04:19:17.159Z,75.71
2023-05-11T04:21:46.872Z,73.74
2023-05-11T04:24:15.012Z,74.66
2023-05-11T04:26:42.970Z,77.65
2023-05-11T04:29:11.470Z,77.20
2023-05-11T04:31:39.875Z,77.18
2023-05-11T04:34:08.345Z,77.12
2023-05-11T04:36:38.199Z,75.76
2023-05-11T04:39:07.800Z,78.24
2023-05-11T04:41:37.778Z,77.73
2023-05-11T04:44:06.212Z,76.45
2023-05-11T04:46:34.429Z,77.32
2023-05-11T04:49:02.509Z,75.71
2023-05-11T04:51:32.398Z,77.41
2023-05-11T04:54:00.954Z,74.91
2023-05-11T04:56:28.863Z,78.58
2023-05-11T04:58:56.823Z,80.09
2023-05-11T05:01:25.618Z,79.96
2023-05-11T05:03:53.766Z,80.99
2023-05-11T05:06:21.782Z,79.28
2023-05-11T05:08:49.691Z,79.44
2023-05-11T05:11:18.002Z,77.60
2023-05-11T05:13:46.375Z,81.20
2023-05-11T05:16:14.735Z,80.82
2023-05-11T05:18:43.901Z,80.22
2023-05-11T05:21:12.137Z,81.92
2023-05-11T05:23:40.283Z,80.86
2023-05-11T05:26:08.213Z,81.63
2023-05-11T05:28:38.875Z,80.77
2023-05-11T05:31:07.033Z,80.85
2023-05-11T05:33:35.122Z,79.78
2023-05-11T05:36:03.423Z,79.95
2023-05-11T05:38:31.507Z,82.93
2023-05-11T05:40:59.905Z,81.00
2023-05-11T05:43:30.906Z,80.27
2023-05-11T05:45:59.600Z,81.13
2023-05-11T05:48:29.607Z,81.07
2023-05-11T05:50:57.765Z,81.04
2023-05-11T05:53:26.120Z,80.59
2023-05-11T05:55:54.127Z,82.63
2023-05-11T05:58:24.602Z,81.51
2023-05-11T06:00:52.909Z,81.85
2023-05-11T06:03:21.071Z,79.62
2023-05-11T06:05:49.326Z,80.50
2023-05-11T06:08:17.444Z,80.14
2023-05-11T06:10:49.421Z,79.62
2023-05-11T06:13:18.716Z,79.46
2023-05-11T06:15:46.755Z,81.67
2023-05-11T06:18:31.365Z,80.91
2023-05-11T06:21:00.550Z,81.15
2023-05-11T06:23:30.619Z,82.23
2023-05-11T06:25:58.861Z,82.35
2023-05-11T06:28:29.853Z,81.81
2023-05-11T06:31:03.681Z,81.87
2023-05-11T06:33:36.271Z,81.41
2023-05-11T06:36:07.995Z,81.56
2023-05-11T06:38:37.641Z,81.45
2023-05-11T06:41:06.462Z,82.21
2023-05-11T06:43:34.453Z,81.65
2023-05-11T06:46:04.877Z,81.59
2023-05-11T06:48:33.646Z,80.89
2023-05-11T06:51:01.857Z,80.73
2023-05-11T06:53:29.792Z,81.33
2023-05-11T06:55:59.375Z,81.12
2023-05-11T06:58:27.885Z,81.87
2023-05-11T07:00:56.603Z,80.85
2023-05-11T07:03:25.035Z,81.51
2023-05-11T07:05:53.161Z,80.80
2023-05-11T07:08:21.378Z,80.40
2023-05-11T07:10:49.666Z,81.51
2023-05-11T07:13:17.655Z,81.15
2023-05-11T07:15:45.676Z,81.85
2023-05-11T07:18:13.808Z,80.86
2023-05-11T07:20:41.941Z,79.36
2023-05-11T07:23:09.949Z,80.21
2023-05-11T07:25:37.902Z,79.45
2023-05-11T07:28:06.024Z,80.44
2023-05-11T07:30:33.935Z,81.17
2023-05-11T07:33:03.342Z,82.02
2023-05-11T07:35:31.521Z,80.79
2023-05-11T07:38:15.732Z,80.70
2023-05-11T07:40:44.114Z,80.69
2023-05-11T07:43:12.867Z,81.74
2023-05-11T07:45:40.829Z,81.30
2023-05-11T07:48:09.221Z,81.35
2023-05-11T07:50:38.080Z,80.94
2023-05-11T07:53:06.080Z,79.76
2023-05-11T07:55:34.681Z,81.16
2023-05-11T07:58:02.914Z,80.77
2023-05-11T08:00:31.335Z,81.41
2023-05-11T08:02:59.817Z,80.51
2023-05-11T08:05:29.348Z,79.70
2023-05-11T08:07:57.336Z,79.53
2023-05-11T08:10:25.795Z,79.25
2023-05-11T08:12:54.757Z,81.60
2023-05-11T08:15:22.740Z,78.90
2023-05-11T08:20:21.351Z,78.92
2023-05-11T08:22:49.349Z,79.77
2023-05-11T08:25:18.188Z,80.13
2023-05-11T08:27:46.623Z,80.63
2023-05-11T08:30:14.860Z,80.15
2023-05-11T08:32:54.628Z,79.77
2023-05-11T08:35:27.240Z,80.58
2023-05-11T08:37:55.262Z,79.30
2023-05-11T08:40:27.812Z,77.91
2023-05-11T08:42:57.394Z,80.37
2023-05-11T08:45:27.470Z,79.70
2023-05-11T08:47:56.094Z,77.55
2023-05-11T08:50:24.525Z,80.37
2023-05-11T08:52:52.674Z,79.93
2023-05-11T08:55:22.739Z,80.63
2023-05-11T08:57:53.643Z,79.78
2023-05-11T09:00:23.313Z,79.97
2023-05-11T09:02:52.336Z,80.77
2023-05-11T09:05:21.543Z,80.24
2023-05-11T09:07:57.271Z,79.87
2023-05-11T09:10:25.560Z,80.19
2023-05-11T09:12:53.516Z,80.95
2023-05-11T09:15:21.795Z,81.42
2023-05-11T09:17:50.190Z,79.65
2023-05-11T09:20:29.545Z,80.10
2023-05-11T09:23:00.973Z,80.08
2023-05-11T09:25:33.595Z,79.00
2023-05-11T09:28:01.804Z,78.56
2023-05-11T09:30:30.902Z,77.92
2023-05-11T09:33:01.362Z,77.81
2023-05-11T09:35:35.452Z,77.81
2023-05-11T09:38:12.458Z,77.45
2023-05-11T09:40:43.641Z,76.80
2023-05-11T09:43:26.656Z,78.62
2023-05-11T09:45:58.888Z,77.06
2023-05-11T09:48:32.055Z,77.71
2023-05-11T09:51:05.422Z,77.12
2023-05-11T09:53:42.643Z,77.41
2023-05-11T09:56:15.572Z,77.55
2023-05-11T09:58:49.313Z,77.30
2023-05-11T10:01:34.326Z,76.74
2023-05-11T10:04:22.058Z,76.07
2023-05-11T10:06:53.884Z,77.28
2023-05-11T10:09:26.620Z,76.59
2023-05-11T10:11:56.899Z,75.28
2023-05-11T10:14:28.267Z,74.94
2023-05-11T10:16:59.091Z,75.33
2023-05-11T10:19:27.834Z,74.30
2023-05-11T10:21:56.964Z,73.62
2023-05-11T10:24:25.451Z,74.25
2023-05-11T10:26:54.147Z,74.04
2023-05-11T10:29:22.716Z,72.09
2023-05-11T10:33:49.269Z,73.34
2023-05-11T10:36:19.455Z,73.91
2023-05-11T10:38:47.961Z,74.65
2023-05-11T10:41:35.458Z,74.50
2023-05-11T10:44:57.470Z,73.85
2023-05-11T10:48:17.891Z,73.58
2023-05-11T10:51:42.844Z,74.66
2023-05-11T10:54:43.166Z,72.67
2023-05-11T10:57:36.026Z,70.98
2023-05-11T11:00:43.383Z,70.64
2023-05-11T11:03:13.263Z,70.95
2023-05-11T11:05:43.727Z,70.45
2023-05-11T11:08:12.158Z,70.64
2023-05-11T11:10:46.855Z,70.74
2023-05-11T11:13:17.024Z,70.78
2023-05-11T11:15:54.195Z,71.36
2023-05-11T11:18:28.464Z,71.79
2023-05-11T11:20:59.027Z,72.14
2023-05-11T11:23:48.979Z,71.91
2023-05-11T11:26:49.352Z,71.77
2023-05-11T11:29:17.816Z,71.75
2023-05-11T11:31:46.114Z,70.64
2023-05-11T11:34:29.845Z,70.33
2023-05-11T11:36:58.677Z,69.73
2023-05-11T11:39:42.654Z,69.69
2023-05-11T11:42:19.145Z,69.89
2023-05-11T11:44:48.413Z,69.54
2023-05-11T11:47:21.946Z,69.62
2023-05-11T11:49:54.482Z,69.47
2023-05-11T11:52:28.539Z,69.42
2023-05-11T11:55:03.817Z,69.60
2023-05-11T11:57:34.755Z,69.14
2023-05-11T12:00:06.943Z,69.15
2023-05-11T12:02:45.859Z,68.45
2023-05-11T12:05:20.175Z,67.75
2023-05-11T12:07:53.182Z,67.50
2023-05-11T12:10:22.796Z,66.94
2023-05-11T12:12:54.973Z,66.89
2023-05-11T12:15:29.728Z,67.42
2023-05-11T12:17:58.578Z,66.64
2023-05-11T12:20:26.446Z,66.35
2023-05-11T12:22:54.856Z,67.50
2023-05-11T12:25:23.590Z,67.31
2023-05-11T12:27:58.023Z,68.73
2023-05-11T12:30:30.170Z,67.95
2023-05-11T12:33:04.497Z,67.49
2023-05-11T12:35:34.713Z,67.09
2023-05-11T12:38:05.834Z,66.14
2023-05-11T12:40:34.996Z,66.64
2023-05-11T12:43:03.195Z,65.40
2023-05-11T12:45:32.253Z,64.92
2023-05-11T12:48:01.474Z,65.04
2023-05-11T12:50:30.089Z,65.10
2023-05-11T12:53:22.741Z,65.00
2023-05-11T12:56:00.565Z,64.26
2023-05-11T12:58:41.957Z,63.93
2023-05-11T13:01:10.760Z,63.33
2023-05-11T13:03:39.130Z,62.52
2023-05-11T13:06:14.194Z,63.98
2023-05-11T13:08:47.186Z,63.85
2023-05-11T13:11:26.513Z,64.41
2023-05-11T13:13:57.339Z,64.67
2023-05-11T13:16:32.661Z,64.88
2023-05-11T13:19:04.263Z,64.14
2023-05-11T13:21:33.433Z,63.42
2023-05-11T13:24:07.080Z,63.17
2023-05-11T13:26:35.602Z,61.67
2023-05-11T13:29:11.234Z,61.34
2023-05-11T13:31:50.648Z,60.61
2023-05-11T13:34:20.005Z,60.92
2023-05-11T13:36:48.488Z,60.82
2023-05-11T13:39:16.931Z,60.67
2023-05-11T13:41:45.693Z,60.94
2023-05-11T13:44:14.043Z,61.05
2023-05-11T13:46:42.381Z,60.74
2023-05-11T13:49:11.303Z,61.53
2023-05-11T13:51:39.518Z,61.14
2023-05-11T13:54:07.601Z,62.38
2023-05-11T13:56:36.285Z,63.41
2023-05-11T13:59:04.123Z,63.19
2023-05-11T14:01:32.242Z,63.81
2023-05-11T14:04:00.834Z,63.62
2023-05-11T14:06:28.851Z,63.87
2023-05-11T14:08:56.818Z,63.82
2023-05-11T14:11:25.448Z,63.84
2023-05-11T14:13:53.840Z,63.73
2023-05-11T14:16:23.009Z,64.29
2023-05-11T14:18:51.233Z,64.54
2023-05-11T14:21:19.551Z,63.91
2023-05-11T14:24:02.040Z,64.02
2023-05-11T14:26:35.814Z,63.19
2023-05-11T14:29:04.523Z,63.19
2023-05-11T14:31:34.745Z,63.47
2023-05-11T14:34:04.776Z,63.60
2023-05-11T14:36:33.367Z,63.45
2023-05-11T14:39:01.297Z,64.38
2023-05-11T14:41:29.254Z,64.41
2023-05-11T14:43:58.014Z,64.98
2023-05-11T14:46:26.961Z,64.37
2023-05-11T14:48:55.440Z,64.57
2023-05-11T14:51:23.535Z,64.50
2023-05-11T14:53:52.203Z,64.60
2023-05-11T14:56:21.989Z,64.61
2023-05-11T14:58:50.231Z,65.05
2023-05-11T15:01:18.690Z,64.95
2023-05-11T15:03:47.353Z,64.96
2023-05-11T15:06:22.393Z,65.21
2023-05-11T15:08:51.406Z,65.21
2023-05-11T15:11:19.463Z,65.42
2023-05-11T15:13:47.618Z,65.67
2023-05-11T15:16:16.123Z,66.29
2023-05-11T15:18:44.497Z,66.51
2023-05-11T15:21:12.844Z,66.94
2023-05-11T15:23:42.376Z,66.68
2023-05-11T15:26:10.492Z,66.56
2023-05-11T15:28:38.409Z,66.64
2023-05-11T15:31:06.918Z,66.09
2023-05-11T15:33:35.113Z,66.21
2023-05-11T15:36:11.299Z,66.32
2023-05-11T15:38:40.026Z,66.52
2023-05-11T15:41:08.926Z,67.03
2023-05-11T15:43:36.943Z,68.66
2023-05-11T15:46:05.690Z,69.64
2023-05-11T15:48:33.820Z,70.66
2023-05-11T15:51:02.757Z,70.65
2023-05-11T15:53:31.592Z,70.08
2023-05-11T15:56:00.161Z,71.14
2023-05-11T15:58:36.422Z,70.97
2023-05-11T16:01:07.169Z,71.88
2023-05-11T16:03:35.796Z,71.07
2023-05-11T16:06:04.856Z,71.27
2023-05-11T16:08:32.898Z,70.81
2023-05-11T16:11:01.213Z,71.27
2023-05-11T16:13:30.445Z,71.57
2023-05-11T16:15:59.374Z,71.46
2023-05-11T16:18:34.891Z,71.76
2023-05-11T16:21:04.027Z,72.18
2023-05-11T16:23:32.653Z,73.06
2023-05-11T16:26:01.100Z,72.71
2023-05-11T16:28:29.285Z,73.89
2023-05-11T16:30:59.325Z,73.86
2023-05-11T16:33:27.807Z,74.26
2023-05-11T16:35:56.071Z,73.84
2023-05-11T16:38:24.368Z,75.05
2023-05-11T16:40:52.264Z,73.67
2023-05-11T16:43:20.634Z,74.30
2023-05-11T16:45:49.088Z,75.43
2023-05-11T16:48:18.058Z,74.55
2023-05-11T16:50:46.866Z,75.08
2023-05-11T16:53:15.058Z,75.93
2023-05-11T16:55:43.110Z,75.20
2023-05-11T16:58:11.543Z,73.52
2023-05-11T17:00:40.080Z,75.97
2023-05-11T17:03:08.421Z,76.62
2023-05-11T17:05:36.322Z,77.62
2023-05-11T17:08:04.349Z,78.01
2023-05-11T17:10:32.708Z,77.32
2023-05-11T17:13:01.196Z,78.43
2023-05-11T17:15:29.562Z,79.21
2023-05-11T17:17:57.988Z,78.91
2023-05-11T17:20:26.917Z,79.09
2023-05-11T17:22:55.746Z,80.08
2023-05-11T17:25:24.338Z,79.89
2023-05-11T17:27:52.244Z,80.05
2023-05-11T17:30:22.232Z,77.87
2023-05-11T17:32:52.375Z,78.04
2023-05-11T17:35:20.631Z,79.57
2023-05-11T17:37:48.971Z,78.19
2023-05-11T17:40:20.924Z,79.50
2023-05-11T17:42:49.587Z,80.56
2023-05-11T17:45:18.060Z,80.93
2023-05-11T17:47:50.160Z,81.48
2023-05-11T17:50:18.643Z,80.43
2023-05-11T17:52:49.439Z,82.66
2023-05-11T17:55:19.447Z,82.64
2023-05-11T17:57:48.352Z,81.88
2023-05-11T18:00:17.108Z,82.64
2023-05-11T18:02:49.909Z,83.86
2023-05-11T18:05:18.496Z,83.12
2023-05-11T18:07:46.691Z,85.28
2023-05-11T18:10:15.478Z,83.93
2023-05-11T18:12:43.495Z,81.34
2023-05-11T18:15:14.845Z,81.39
2023-05-11T18:17:43.413Z,81.51
2023-05-11T18:20:12.007Z,83.36
2023-05-11T18:22:40.380Z,81.97
2023-05-11T18:25:09.868Z,83.68
2023-05-11T18:27:38.192Z,84.28
2023-05-11T18:30:07.458Z,84.21
2023-05-11T18:32:35.870Z,83.52
2023-05-11T18:35:04.533Z,83.58
2023-05-11T18:37:35.592Z,83.39
2023-05-11T18:40:08.333Z,83.86
2023-05-11T18:42:36.613Z,83.40
2023-05-11T18:45:05.723Z,83.46
2023-05-11T18:47:36.082Z,84.09
2023-05-11T18:50:05.455Z,81.83
2023-05-11T18:52:34.611Z,82.41
2023-05-11T18:55:02.980Z,84.26
2023-05-11T18:57:33.948Z,84.56
2023-05-11T19:00:01.671Z,83.48
2023-05-11T19:02:29.762Z,85.38
2023-05-11T19:04:58.335Z,85.28
2023-05-11T19:07:26.333Z,84.44
2023-05-11T19:09:54.767Z,84.41
2023-05-11T19:12:22.842Z,87.01
2023-05-11T19:14:55.285Z,85.62
2023-05-11T19:17:23.788Z,86.88
2023-05-11T19:19:52.370Z,87.00
2023-05-11T19:22:21.897Z,87.85
2023-05-11T19:24:50.661Z,87.45
2023-05-11T19:27:19.024Z,86.85
2023-05-11T19:29:50.606Z,86.77
2023-05-11T19:32:19.223Z,89.13
2023-05-11T19:34:47.439Z,88.20
2023-05-11T19:37:15.937Z,87.23
2023-05-11T19:39:44.092Z,86.78
2023-05-11T19:42:12.916Z,87.35
2023-05-11T19:44:43.501Z,87.06
2023-05-11T19:47:11.908Z,85.80
2023-05-11T19:49:40.186Z,88.44
2023-05-11T19:52:08.547Z,88.20
2023-05-11T19:54:36.778Z,88.39
2023-05-11T19:57:05.073Z,88.36
2023-05-11T19:59:33.465Z,88.75
2023-05-11T20:02:02.700Z,87.18
2023-05-11T20:04:31.180Z,89.13
2023-05-11T20:06:59.138Z,86.85
2023-05-11T20:09:27.309Z,86.67
2023-05-11T20:11:56.039Z,86.73
2023-05-11T20:14:24.433Z,87.44
2023-05-11T20:16:52.396Z,87.78
2023-05-11T20:19:23.123Z,87.19
2023-05-11T20:21:51.838Z,87.05
2023-05-11T20:24:19.706Z,86.29
2023-05-11T20:26:47.854Z,88.04
2023-05-11T20:29:16.182Z,88.05
2023-05-11T20:31:46.415Z,89.90
2023-05-11T20:34:15.049Z,88.99
2023-05-11T20:36:42.935Z,91.59
2023-05-11T20:39:11.348Z,90.02
2023-05-11T20:41:39.235Z,90.24
2023-05-11T20:44:22.679Z,88.79
2023-05-11T20:46:53.004Z,88.65
2023-05-11T20:49:34.604Z,89.76
2023-05-11T20:52:07.163Z,90.58
2023-05-11T20:54:36.381Z,89.66
2023-05-11T20:57:04.766Z,90.41
2023-05-11T21:02:05.088Z,91.08
2023-05-11T21:04:33.740Z,91.44
2023-05-11T21:07:02.118Z,91.96
2023-05-11T21:09:30.607Z,91.31
2023-05-11T21:11:59.568Z,91.64
2023-05-11T21:14:28.032Z,89.19
2023-05-11T21:16:57.012Z,90.32
2023-05-11T21:19:24.990Z,90.20
2023-05-11T21:21:53.374Z,88.85
2023-05-11T21:24:21.255Z,90.03
2023-05-11T21:26:49.417Z,91.34
2023-05-11T21:29:17.709Z,90.90
2023-05-11T21:31:46.249Z,91.62
2023-05-11T21:34:14.853Z,90.65
2023-05-11T21:36:43.472Z,90.74
2023-05-11T21:39:15.793Z,91.65
2023-05-11T21:41:43.962Z,89.90
2023-05-11T21:44:12.344Z,90.94
2023-05-11T21:46:40.186Z,90.28
2023-05-11T21:49:09.074Z,91.29
2023-05-11T21:51:36.873Z,90.71
2023-05-11T21:54:05.254Z,89.57
2023-05-11T21:56:33.228Z,89.63
2023-05-11T21:59:01.492Z,91.70
2023-05-11T22:01:29.833Z,91.48
2023-05-11T22:04:00.867Z,91.33
2023-05-11T22:06:29.441Z,92.36
2023-05-11T22:08:57.649Z,91.49
2023-05-11T22:11:27.550Z,90.44
2023-05-11T22:13:55.863Z,90.60
2023-05-11T22:16:23.837Z,91.91
2023-05-11T22:18:52.236Z,90.29
2023-05-11T22:21:20.062Z,90.77
2023-05-11T22:23:48.035Z,91.07
2023-05-11T22:26:16.437Z,91.06
2023-05-11T22:28:45.171Z,90.24
2023-05-11T22:31:13.614Z,90.39
2023-05-11T22:33:41.691Z,92.25
2023-05-11T22:36:11.675Z,90.17
2023-05-11T22:38:40.123Z,89.76
2023-05-11T22:41:08.375Z,89.82
2023-05-11T22:43:36.283Z,88.91
2023-05-11T22:46:04.993Z,88.89
2023-05-11T22:48:33.527Z,88.68
2023-05-11T22:51:06.181Z,89.25
2023-05-11T22:53:34.405Z,89.75
2023-05-11T22:56:07.487Z,87.49
2023-05-11T22:58:35.559Z,88.10
2023-05-11T23:01:03.959Z,87.79
2023-05-11T23:03:32.351Z,86.92
2023-05-11T23:06:00.334Z,86.72
2023-05-11T23:08:28.729Z,87.02
2023-05-11T23:10:57.017Z,87.17
2023-05-11T23:13:25.123Z,87.05
2023-05-11T23:15:53.076Z,88.07
2023-05-11T23:18:21.194Z,88.52
2023-05-11T23:20:55.592Z,88.77
2023-05-11T23:23:24.723Z,88.49
2023-05-11T23:25:53.080Z,87.96
2023-05-11T23:28:21.295Z,88.53
2023-05-11T23:30:49.988Z,88.91
2023-05-11T23:33:18.104Z,87.24
2023-05-11T23:35:48.404Z,90.25
2023-05-11T23:38:16.885Z,88.78
2023-05-11T23:40:44.731Z,89.02
2023-05-11T23:43:13.091Z,86.38
2023-05-11T23:45:40.944Z,87.80
2023-05-11T23:48:09.476Z,86.46
2023-05-11T23:50:37.785Z,87.67
2023-05-11T23:53:06.048Z,89.31
2023-05-11T23:55:34.151Z,86.83
2023-05-11T23:58:02.089Z,85.51
